sensor_id;sensor_type;location;lat;lon;timestamp;temperature;humidity
11387;DHT22;5748;53.102;8.456;2023-02-16T00:01:20;7.60;58.50
11387;DHT22;5748;53.102;8.456;2023-02-16T00:03:50;7.70;58.70
11387;DHT22;5748;53.102;8.456;2023-02-16T00:06:18;7.50;58.50
11387;DHT22;5748;53.102;8.456;2023-02-16T00:08:47;7.50;58.50
11387;DHT22;5748;53.102;8.456;2023-02-16T00:11:18;7.50;58.60
11387;DHT22;5748;53.102;8.456;2023-02-16T00:14:08;7.40;58.60
11387;DHT22;5748;53.102;8.456;2023-02-16T00:16:37;7.40;58.60
11387;DHT22;5748;53.102;8.456;2023-02-16T00:19:19;7.40;58.60
11387;DHT22;5748;53.102;8.456;2023-02-16T00:21:49;7.30;58.80
11387;DHT22;5748;53.102;8.456;2023-02-16T00:24:16;7.30;58.60
11387;DHT22;5748;53.102;8.456;2023-02-16T00:26:44;7.30;58.70
11387;DHT22;5748;53.102;8.456;2023-02-16T00:29:19;7.30;58.80
11387;DHT22;5748;53.102;8.456;2023-02-16T00:31:48;7.40;59.10
11387;DHT22;5748;53.102;8.456;2023-02-16T00:34:27;7.20;58.90
11387;DHT22;5748;53.102;8.456;2023-02-16T00:36:57;7.20;59.20
11387;DHT22;5748;53.102;8.456;2023-02-16T00:39:30;7.30;59.20
11387;DHT22;5748;53.102;8.456;2023-02-16T00:42:00;7.40;59.40
11387;DHT22;5748;53.102;8.456;2023-02-16T00:44:33;7.20;59.20
11387;DHT22;5748;53.102;8.456;2023-02-16T00:47:04;7.20;59.30
11387;DHT22;5748;53.102;8.456;2023-02-16T00:49:47;7.20;59.30
11387;DHT22;5748;53.102;8.456;2023-02-16T00:52:33;7.30;59.40
11387;DHT22;5748;53.102;8.456;2023-02-16T00:55:04;7.20;59.60
11387;DHT22;5748;53.102;8.456;2023-02-16T00:57:34;7.20;59.40
11387;DHT22;5748;53.102;8.456;2023-02-16T01:00:11;7.20;59.50
11387;DHT22;5748;53.102;8.456;2023-02-16T01:02:41;7.20;59.50
11387;DHT22;5748;53.102;8.456;2023-02-16T01:05:08;7.20;59.40
11387;DHT22;5748;53.102;8.456;2023-02-16T01:07:36;7.20;60.00
11387;DHT22;5748;53.102;8.456;2023-02-16T01:10:20;7.20;59.50
11387;DHT22;5748;53.102;8.456;2023-02-16T01:13:06;7.20;59.50
11387;DHT22;5748;53.102;8.456;2023-02-16T01:15:35;7.30;59.50
11387;DHT22;5748;53.102;8.456;2023-02-16T01:18:02;7.30;59.50
11387;DHT22;5748;53.102;8.456;2023-02-16T01:20:30;7.20;59.40
11387;DHT22;5748;53.102;8.456;2023-02-16T01:22:57;7.20;59.40
11387;DHT22;5748;53.102;8.456;2023-02-16T01:25:24;7.30;59.60
11387;DHT22;5748;53.102;8.456;2023-02-16T01:27:51;8.00;60.20
11387;DHT22;5748;53.102;8.456;2023-02-16T01:30:22;7.30;59.50
11387;DHT22;5748;53.102;8.456;2023-02-16T01:32:52;7.30;59.80
11387;DHT22;5748;53.102;8.456;2023-02-16T01:35:21;7.30;59.80
11387;DHT22;5748;53.102;8.456;2023-02-16T01:37:49;7.30;60.00
11387;DHT22;5748;53.102;8.456;2023-02-16T01:40:25;7.40;60.00
11387;DHT22;5748;53.102;8.456;2023-02-16T01:43:00;7.30;60.10
11387;DHT22;5748;53.102;8.456;2023-02-16T01:45:33;7.40;60.00
11387;DHT22;5748;53.102;8.456;2023-02-16T01:48:04;7.40;59.90
11387;DHT22;5748;53.102;8.456;2023-02-16T01:50:42;7.40;59.90
11387;DHT22;5748;53.102;8.456;2023-02-16T01:53:17;7.40;60.10
11387;DHT22;5748;53.102;8.456;2023-02-16T01:55:50;8.20;61.00
11387;DHT22;5748;53.102;8.456;2023-02-16T01:58:28;7.40;60.20
11387;DHT22;5748;53.102;8.456;2023-02-16T02:04:52;7.50;60.60
11387;DHT22;5748;53.102;8.456;2023-02-16T02:07:42;7.50;60.50
11387;DHT22;5748;53.102;8.456;2023-02-16T02:10:16;7.60;60.40
11387;DHT22;5748;53.102;8.456;2023-02-16T02:12:52;7.60;60.70
11387;DHT22;5748;53.102;8.456;2023-02-16T02:15:24;7.60;60.60
11387;DHT22;5748;53.102;8.456;2023-02-16T02:17:53;7.80;60.70
11387;DHT22;5748;53.102;8.456;2023-02-16T02:20:27;7.80;60.60
11387;DHT22;5748;53.102;8.456;2023-02-16T02:23:36;7.80;60.80
11387;DHT22;5748;53.102;8.456;2023-02-16T02:29:52;7.80;60.70
11387;DHT22;5748;53.102;8.456;2023-02-16T02:32:35;7.90;60.60
11387;DHT22;5748;53.102;8.456;2023-02-16T02:35:26;7.90;60.30
11387;DHT22;5748;53.102;8.456;2023-02-16T02:38:06;7.90;60.30
11387;DHT22;5748;53.102;8.456;2023-02-16T02:40:47;7.90;60.10
11387;DHT22;5748;53.102;8.456;2023-02-16T02:43:23;7.90;60.00
11387;DHT22;5748;53.102;8.456;2023-02-16T02:45:55;7.90;59.90
11387;DHT22;5748;53.102;8.456;2023-02-16T02:48:29;8.00;59.80
11387;DHT22;5748;53.102;8.456;2023-02-16T02:50:57;7.90;59.70
11387;DHT22;5748;53.102;8.456;2023-02-16T02:53:45;7.90;59.60
11387;DHT22;5748;53.102;8.456;2023-02-16T02:56:16;7.90;59.60
11387;DHT22;5748;53.102;8.456;2023-02-16T02:59:06;7.90;59.70
11387;DHT22;5748;53.102;8.456;2023-02-16T03:01:55;7.90;59.70
11387;DHT22;5748;53.102;8.456;2023-02-16T03:04:26;7.90;59.70
11387;DHT22;5748;53.102;8.456;2023-02-16T03:06:56;7.80;59.70
11387;DHT22;5748;53.102;8.456;2023-02-16T03:09:24;8.10;60.00
11387;DHT22;5748;53.102;8.456;2023-02-16T03:12:01;7.80;59.70
11387;DHT22;5748;53.102;8.456;2023-02-16T03:14:51;7.80;59.80
11387;DHT22;5748;53.102;8.456;2023-02-16T03:17:24;7.80;59.50
11387;DHT22;5748;53.102;8.456;2023-02-16T03:20:14;7.80;59.50
11387;DHT22;5748;53.102;8.456;2023-02-16T03:23:00;7.70;59.50
11387;DHT22;5748;53.102;8.456;2023-02-16T03:25:46;7.70;60.10
11387;DHT22;5748;53.102;8.456;2023-02-16T03:28:32;7.60;59.40
11387;DHT22;5748;53.102;8.456;2023-02-16T03:31:21;7.60;59.40
11387;DHT22;5748;53.102;8.456;2023-02-16T03:33:51;7.60;59.50
11387;DHT22;5748;53.102;8.456;2023-02-16T03:36:19;7.50;59.40
11387;DHT22;5748;53.102;8.456;2023-02-16T03:38:47;7.50;59.60
11387;DHT22;5748;53.102;8.456;2023-02-16T03:41:14;7.50;59.60
11387;DHT22;5748;53.102;8.456;2023-02-16T03:43:41;7.50;59.60
11387;DHT22;5748;53.102;8.456;2023-02-16T03:46:08;7.40;59.60
11387;DHT22;5748;53.102;8.456;2023-02-16T03:48:36;7.40;59.80
11387;DHT22;5748;53.102;8.456;2023-02-16T03:51:03;7.40;59.90
11387;DHT22;5748;53.102;8.456;2023-02-16T03:53:31;7.40;59.90
11387;DHT22;5748;53.102;8.456;2023-02-16T03:55:58;7.40;59.90
11387;DHT22;5748;53.102;8.456;2023-02-16T03:58:25;7.80;60.20
11387;DHT22;5748;53.102;8.456;2023-02-16T04:00:52;7.40;59.90
11387;DHT22;5748;53.102;8.456;2023-02-16T04:03:19;7.40;59.90
11387;DHT22;5748;53.102;8.456;2023-02-16T04:05:48;7.40;59.90
11387;DHT22;5748;53.102;8.456;2023-02-16T04:08:15;7.40;60.10
11387;DHT22;5748;53.102;8.456;2023-02-16T04:10:42;7.40;60.00
11387;DHT22;5748;53.102;8.456;2023-02-16T04:13:09;7.40;60.00
11387;DHT22;5748;53.102;8.456;2023-02-16T04:15:35;7.40;60.00
11387;DHT22;5748;53.102;8.456;2023-02-16T04:18:03;7.40;60.10
11387;DHT22;5748;53.102;8.456;2023-02-16T04:20:32;7.40;60.10
11387;DHT22;5748;53.102;8.456;2023-02-16T04:23:15;7.70;60.80
11387;DHT22;5748;53.102;8.456;2023-02-16T04:25:42;7.40;60.80
11387;DHT22;5748;53.102;8.456;2023-02-16T04:28:09;7.50;60.60
11387;DHT22;5748;53.102;8.456;2023-02-16T04:30:36;7.50;60.60
11387;DHT22;5748;53.102;8.456;2023-02-16T04:33:03;7.50;60.60
11387;DHT22;5748;53.102;8.456;2023-02-16T04:35:30;8.00;61.10
11387;DHT22;5748;53.102;8.456;2023-02-16T04:37:57;7.70;60.80
11387;DHT22;5748;53.102;8.456;2023-02-16T04:40:25;7.60;60.70
11387;DHT22;5748;53.102;8.456;2023-02-16T04:42:52;7.60;60.60
11387;DHT22;5748;53.102;8.456;2023-02-16T04:45:19;7.70;60.60
11387;DHT22;5748;53.102;8.456;2023-02-16T04:47:46;8.20;60.90
11387;DHT22;5748;53.102;8.456;2023-02-16T04:50:13;7.70;60.40
11387;DHT22;5748;53.102;8.456;2023-02-16T04:52:40;7.70;60.40
11387;DHT22;5748;53.102;8.456;2023-02-16T04:55:08;7.70;60.40
11387;DHT22;5748;53.102;8.456;2023-02-16T04:57:36;7.70;60.50
11387;DHT22;5748;53.102;8.456;2023-02-16T05:00:05;7.70;60.60
11387;DHT22;5748;53.102;8.456;2023-02-16T05:02:33;7.70;60.70
11387;DHT22;5748;53.102;8.456;2023-02-16T05:05:00;7.70;60.70
11387;DHT22;5748;53.102;8.456;2023-02-16T05:07:28;7.70;60.80
11387;DHT22;5748;53.102;8.456;2023-02-16T05:09:55;7.80;60.90
11387;DHT22;5748;53.102;8.456;2023-02-16T05:12:23;7.70;61.00
11387;DHT22;5748;53.102;8.456;2023-02-16T05:15:17;7.80;61.00
11387;DHT22;5748;53.102;8.456;2023-02-16T05:17:50;7.90;61.00
11387;DHT22;5748;53.102;8.456;2023-02-16T05:20:17;7.90;61.10
11387;DHT22;5748;53.102;8.456;2023-02-16T05:22:52;7.90;60.90
11387;DHT22;5748;53.102;8.456;2023-02-16T05:25:28;7.90;61.00
11387;DHT22;5748;53.102;8.456;2023-02-16T05:27:55;8.40;62.20
11387;DHT22;5748;53.102;8.456;2023-02-16T05:30:23;8.00;61.40
11387;DHT22;5748;53.102;8.456;2023-02-16T05:32:50;8.00;61.30
11387;DHT22;5748;53.102;8.456;2023-02-16T05:35:17;8.40;61.50
11387;DHT22;5748;53.102;8.456;2023-02-16T05:37:44;8.10;61.30
11387;DHT22;5748;53.102;8.456;2023-02-16T05:40:12;8.40;61.70
11387;DHT22;5748;53.102;8.456;2023-02-16T05:42:39;8.20;61.70
11387;DHT22;5748;53.102;8.456;2023-02-16T05:45:07;8.30;61.60
11387;DHT22;5748;53.102;8.456;2023-02-16T05:47:43;8.40;62.00
11387;DHT22;5748;53.102;8.456;2023-02-16T05:50:10;8.40;62.20
11387;DHT22;5748;53.102;8.456;2023-02-16T05:52:38;8.50;62.20
11387;DHT22;5748;53.102;8.456;2023-02-16T05:55:05;8.50;61.90
11387;DHT22;5748;53.102;8.456;2023-02-16T05:57:40;8.70;62.30
11387;DHT22;5748;53.102;8.456;2023-02-16T06:00:14;8.20;62.10
11387;DHT22;5748;53.102;8.456;2023-02-16T06:02:43;8.70;62.60
11387;DHT22;5748;53.102;8.456;2023-02-16T06:05:35;8.70;63.00
11387;DHT22;5748;53.102;8.456;2023-02-16T06:08:02;8.80;62.50
11387;DHT22;5748;53.102;8.456;2023-02-16T06:10:29;8.90;62.40
11387;DHT22;5748;53.102;8.456;2023-02-16T06:12:56;8.90;62.10
11387;DHT22;5748;53.102;8.456;2023-02-16T06:15:23;9.00;62.10
11387;DHT22;5748;53.102;8.456;2023-02-16T06:17:51;11.90;65.00
11387;DHT22;5748;53.102;8.456;2023-02-16T06:20:18;9.10;62.00
11387;DHT22;5748;53.102;8.456;2023-02-16T06:22:46;9.10;62.00
11387;DHT22;5748;53.102;8.456;2023-02-16T06:25:13;9.10;61.90
11387;DHT22;5748;53.102;8.456;2023-02-16T06:27:40;9.20;62.00
11387;DHT22;5748;53.102;8.456;2023-02-16T06:30:07;9.20;61.90
11387;DHT22;5748;53.102;8.456;2023-02-16T06:32:35;9.30;62.10
11387;DHT22;5748;53.102;8.456;2023-02-16T06:35:03;9.70;62.30
11387;DHT22;5748;53.102;8.456;2023-02-16T06:37:31;9.40;62.00
11387;DHT22;5748;53.102;8.456;2023-02-16T06:39:58;9.40;62.00
11387;DHT22;5748;53.102;8.456;2023-02-16T06:42:25;9.40;61.70
11387;DHT22;5748;53.102;8.456;2023-02-16T06:44:52;9.50;61.80
11387;DHT22;5748;53.102;8.456;2023-02-16T06:47:19;9.50;61.60
11387;DHT22;5748;53.102;8.456;2023-02-16T06:49:46;9.50;61.70
11387;DHT22;5748;53.102;8.456;2023-02-16T06:52:14;9.50;61.50
11387;DHT22;5748;53.102;8.456;2023-02-16T06:54:41;9.60;61.50
11387;DHT22;5748;53.102;8.456;2023-02-16T06:57:08;9.60;61.50
11387;DHT22;5748;53.102;8.456;2023-02-16T06:59:44;9.60;61.70
11387;DHT22;5748;53.102;8.456;2023-02-16T07:02:11;9.70;61.70
11387;DHT22;5748;53.102;8.456;2023-02-16T07:04:38;9.70;61.60
11387;DHT22;5748;53.102;8.456;2023-02-16T07:07:05;9.70;61.70
11387;DHT22;5748;53.102;8.456;2023-02-16T07:09:39;9.70;61.70
11387;DHT22;5748;53.102;8.456;2023-02-16T07:12:06;9.70;61.60
11387;DHT22;5748;53.102;8.456;2023-02-16T07:14:34;9.70;61.70
11387;DHT22;5748;53.102;8.456;2023-02-16T07:17:00;9.70;61.60
11387;DHT22;5748;53.102;8.456;2023-02-16T07:19:28;9.70;61.50
11387;DHT22;5748;53.102;8.456;2023-02-16T07:21:57;9.80;61.60
11387;DHT22;5748;53.102;8.456;2023-02-16T07:24:24;9.80;61.60
11387;DHT22;5748;53.102;8.456;2023-02-16T07:26:53;9.80;61.50
11387;DHT22;5748;53.102;8.456;2023-02-16T07:29:21;11.10;61.90
11387;DHT22;5748;53.102;8.456;2023-02-16T07:31:56;9.80;61.40
11387;DHT22;5748;53.102;8.456;2023-02-16T07:34:23;9.90;61.60
11387;DHT22;5748;53.102;8.456;2023-02-16T07:36:50;9.90;61.40
11387;DHT22;5748;53.102;8.456;2023-02-16T07:39:17;9.90;61.50
11387;DHT22;5748;53.102;8.456;2023-02-16T07:41:45;9.90;61.50
11387;DHT22;5748;53.102;8.456;2023-02-16T07:44:13;10.00;60.50
11387;DHT22;5748;53.102;8.456;2023-02-16T07:46:40;10.00;60.40
11387;DHT22;5748;53.102;8.456;2023-02-16T07:49:07;10.00;60.40
11387;DHT22;5748;53.102;8.456;2023-02-16T07:51:34;10.10;60.60
11387;DHT22;5748;53.102;8.456;2023-02-16T07:54:01;10.10;60.50
11387;DHT22;5748;53.102;8.456;2023-02-16T07:56:30;10.10;60.40
11387;DHT22;5748;53.102;8.456;2023-02-16T07:58:59;10.10;60.60
11387;DHT22;5748;53.102;8.456;2023-02-16T08:01:29;10.20;60.60
11387;DHT22;5748;53.102;8.456;2023-02-16T08:03:56;10.20;60.60
11387;DHT22;5748;53.102;8.456;2023-02-16T08:06:24;10.30;60.50
11387;DHT22;5748;53.102;8.456;2023-02-16T08:08:51;10.30;60.40
11387;DHT22;5748;53.102;8.456;2023-02-16T08:11:20;10.30;60.50
11387;DHT22;5748;53.102;8.456;2023-02-16T08:13:49;10.30;60.50
11387;DHT22;5748;53.102;8.456;2023-02-16T08:16:18;10.30;60.50
11387;DHT22;5748;53.102;8.456;2023-02-16T08:18:47;10.30;60.50
11387;DHT22;5748;53.102;8.456;2023-02-16T08:21:18;10.40;60.50
11387;DHT22;5748;53.102;8.456;2023-02-16T08:23:50;10.40;60.60
11387;DHT22;5748;53.102;8.456;2023-02-16T08:26:19;10.40;60.60
11387;DHT22;5748;53.102;8.456;2023-02-16T08:28:48;10.40;60.60
11387;DHT22;5748;53.102;8.456;2023-02-16T08:31:17;10.50;60.70
11387;DHT22;5748;53.102;8.456;2023-02-16T08:33:46;10.50;60.60
11387;DHT22;5748;53.102;8.456;2023-02-16T08:36:17;10.50;60.60
11387;DHT22;5748;53.102;8.456;2023-02-16T08:38:45;10.50;60.60
11387;DHT22;5748;53.102;8.456;2023-02-16T08:41:14;10.60;60.60
11387;DHT22;5748;53.102;8.456;2023-02-16T08:43:41;10.60;60.50
11387;DHT22;5748;53.102;8.456;2023-02-16T08:46:08;10.70;60.60
11387;DHT22;5748;53.102;8.456;2023-02-16T08:48:36;10.70;60.40
11387;DHT22;5748;53.102;8.456;2023-02-16T08:51:06;10.70;60.50
11387;DHT22;5748;53.102;8.456;2023-02-16T08:53:34;10.70;60.50
11387;DHT22;5748;53.102;8.456;2023-02-16T08:56:03;10.80;60.60
11387;DHT22;5748;53.102;8.456;2023-02-16T08:58:31;10.80;60.60
11387;DHT22;5748;53.102;8.456;2023-02-16T09:01:02;10.80;60.50
11387;DHT22;5748;53.102;8.456;2023-02-16T09:03:30;10.80;60.70
11387;DHT22;5748;53.102;8.456;2023-02-16T09:06:00;10.90;60.70
11387;DHT22;5748;53.102;8.456;2023-02-16T09:08:31;10.90;60.90
11387;DHT22;5748;53.102;8.456;2023-02-16T09:11:00;11.00;61.10
11387;DHT22;5748;53.102;8.456;2023-02-16T09:13:27;11.00;61.00
11387;DHT22;5748;53.102;8.456;2023-02-16T09:15:59;11.10;61.00
11387;DHT22;5748;53.102;8.456;2023-02-16T09:18:27;11.20;61.00
11387;DHT22;5748;53.102;8.456;2023-02-16T09:20:54;11.30;61.00
11387;DHT22;5748;53.102;8.456;2023-02-16T09:23:22;11.30;61.10
11387;DHT22;5748;53.102;8.456;2023-02-16T09:25:51;11.40;61.30
11387;DHT22;5748;53.102;8.456;2023-02-16T09:28:18;11.50;61.30
11387;DHT22;5748;53.102;8.456;2023-02-16T09:30:46;11.50;61.20
11387;DHT22;5748;53.102;8.456;2023-02-16T09:33:13;11.60;61.20
11387;DHT22;5748;53.102;8.456;2023-02-16T09:35:40;11.70;61.30
11387;DHT22;5748;53.102;8.456;2023-02-16T09:38:07;11.80;61.40
11387;DHT22;5748;53.102;8.456;2023-02-16T09:40:35;11.90;61.30
11387;DHT22;5748;53.102;8.456;2023-02-16T09:43:11;12.00;61.50
11387;DHT22;5748;53.102;8.456;2023-02-16T09:45:46;12.10;61.60
11387;DHT22;5748;53.102;8.456;2023-02-16T09:48:23;12.20;61.60
11387;DHT22;5748;53.102;8.456;2023-02-16T09:50:58;12.30;61.40
11387;DHT22;5748;53.102;8.456;2023-02-16T09:53:37;12.40;61.80
11387;DHT22;5748;53.102;8.456;2023-02-16T09:56:13;12.60;61.80
11387;DHT22;5748;53.102;8.456;2023-02-16T09:58:49;12.70;62.20
11387;DHT22;5748;53.102;8.456;2023-02-16T10:01:25;12.90;61.90
11387;DHT22;5748;53.102;8.456;2023-02-16T10:04:10;13.00;61.30
11387;DHT22;5748;53.102;8.456;2023-02-16T10:06:52;13.10;61.00
11387;DHT22;5748;53.102;8.456;2023-02-16T10:09:26;13.20;60.40
11387;DHT22;5748;53.102;8.456;2023-02-16T10:11:57;13.30;60.30
11387;DHT22;5748;53.102;8.456;2023-02-16T10:14:33;13.20;60.20
11387;DHT22;5748;53.102;8.456;2023-02-16T10:17:12;13.10;60.10
11387;DHT22;5748;53.102;8.456;2023-02-16T10:19:45;13.20;60.50
11387;DHT22;5748;53.102;8.456;2023-02-16T10:22:19;13.20;60.60
11387;DHT22;5748;53.102;8.456;2023-02-16T10:24:56;13.40;60.40
11387;DHT22;5748;53.102;8.456;2023-02-16T10:27:31;13.30;60.20
11387;DHT22;5748;53.102;8.456;2023-02-16T10:30:07;13.30;60.20
11387;DHT22;5748;53.102;8.456;2023-02-16T10:32:44;13.30;60.30
11387;DHT22;5748;53.102;8.456;2023-02-16T10:35:25;13.20;60.20
11387;DHT22;5748;53.102;8.456;2023-02-16T10:38:01;13.20;60.30
11387;DHT22;5748;53.102;8.456;2023-02-16T10:40:36;13.20;60.10
11387;DHT22;5748;53.102;8.456;2023-02-16T10:43:14;13.20;60.20
11387;DHT22;5748;53.102;8.456;2023-02-16T10:45:50;13.30;60.30
11387;DHT22;5748;53.102;8.456;2023-02-16T10:48:19;13.20;60.30
11387;DHT22;5748;53.102;8.456;2023-02-16T10:50:53;13.10;60.30
11387;DHT22;5748;53.102;8.456;2023-02-16T10:53:33;13.10;60.40
11387;DHT22;5748;53.102;8.456;2023-02-16T10:56:24;13.10;60.50
11387;DHT22;5748;53.102;8.456;2023-02-16T10:59:13;13.10;60.60
11387;DHT22;5748;53.102;8.456;2023-02-16T11:01:45;13.10;60.50
11387;DHT22;5748;53.102;8.456;2023-02-16T11:04:38;13.10;60.60
11387;DHT22;5748;53.102;8.456;2023-02-16T11:07:08;13.10;60.70
11387;DHT22;5748;53.102;8.456;2023-02-16T11:09:37;13.20;60.90
11387;DHT22;5748;53.102;8.456;2023-02-16T11:12:15;13.10;60.90
11387;DHT22;5748;53.102;8.456;2023-02-16T11:14:48;13.10;61.10
11387;DHT22;5748;53.102;8.456;2023-02-16T11:17:19;13.10;61.00
11387;DHT22;5748;53.102;8.456;2023-02-16T11:19:52;13.10;61.10
11387;DHT22;5748;53.102;8.456;2023-02-16T11:22:30;13.10;61.20
11387;DHT22;5748;53.102;8.456;2023-02-16T11:25:23;13.10;61.30
11387;DHT22;5748;53.102;8.456;2023-02-16T11:27:53;13.00;61.30
11387;DHT22;5748;53.102;8.456;2023-02-16T11:30:29;13.00;61.40
11387;DHT22;5748;53.102;8.456;2023-02-16T11:33:00;13.00;61.60
11387;DHT22;5748;53.102;8.456;2023-02-16T11:35:29;13.10;61.80
11387;DHT22;5748;53.102;8.456;2023-02-16T11:37:58;13.10;61.80
11387;DHT22;5748;53.102;8.456;2023-02-16T11:40:27;13.10;61.80
11387;DHT22;5748;53.102;8.456;2023-02-16T11:42:57;13.10;61.90
11387;DHT22;5748;53.102;8.456;2023-02-16T11:45:28;13.10;61.90
11387;DHT22;5748;53.102;8.456;2023-02-16T11:47:59;13.10;61.90
11387;DHT22;5748;53.102;8.456;2023-02-16T11:50:28;13.10;61.80
11387;DHT22;5748;53.102;8.456;2023-02-16T11:53:11;13.20;62.00
11387;DHT22;5748;53.102;8.456;2023-02-16T11:55:41;13.20;61.90
11387;DHT22;5748;53.102;8.456;2023-02-16T11:58:15;13.20;61.80
11387;DHT22;5748;53.102;8.456;2023-02-16T12:00:53;13.20;61.90
11387;DHT22;5748;53.102;8.456;2023-02-16T12:03:35;13.30;62.00
11387;DHT22;5748;53.102;8.456;2023-02-16T12:06:28;13.20;61.80
11387;DHT22;5748;53.102;8.456;2023-02-16T12:09:13;13.30;62.10
11387;DHT22;5748;53.102;8.456;2023-02-16T12:11:59;13.30;62.00
11387;DHT22;5748;53.102;8.456;2023-02-16T12:14:52;13.30;61.80
11387;DHT22;5748;53.102;8.456;2023-02-16T12:17:38;13.30;61.90
11387;DHT22;5748;53.102;8.456;2023-02-16T12:23:17;13.30;61.80
11387;DHT22;5748;53.102;8.456;2023-02-16T12:25:55;13.30;61.70
11387;DHT22;5748;53.102;8.456;2023-02-16T12:28:36;13.30;61.80
11387;DHT22;5748;53.102;8.456;2023-02-16T12:31:13;13.30;61.80
11387;DHT22;5748;53.102;8.456;2023-02-16T12:33:49;13.20;61.90
11387;DHT22;5748;53.102;8.456;2023-02-16T12:36:39;13.20;61.90
11387;DHT22;5748;53.102;8.456;2023-02-16T12:39:17;13.20;62.10
11387;DHT22;5748;53.102;8.456;2023-02-16T12:42:08;13.50;62.30
11387;DHT22;5748;53.102;8.456;2023-02-16T12:44:47;13.20;62.20
11387;DHT22;5748;53.102;8.456;2023-02-16T12:47:19;13.20;62.10
11387;DHT22;5748;53.102;8.456;2023-02-16T12:49:52;13.20;62.20
11387;DHT22;5748;53.102;8.456;2023-02-16T12:52:32;13.20;62.10
11387;DHT22;5748;53.102;8.456;2023-02-16T12:55:14;13.20;62.50
11387;DHT22;5748;53.102;8.456;2023-02-16T12:57:50;13.20;62.70
11387;DHT22;5748;53.102;8.456;2023-02-16T13:00:25;13.20;62.80
11387;DHT22;5748;53.102;8.456;2023-02-16T13:03:19;13.20;62.80
11387;DHT22;5748;53.102;8.456;2023-02-16T13:06:02;13.30;63.00
11387;DHT22;5748;53.102;8.456;2023-02-16T13:08:42;13.30;63.00
11387;DHT22;5748;53.102;8.456;2023-02-16T13:11:16;13.50;63.10
11387;DHT22;5748;53.102;8.456;2023-02-16T13:13:48;13.40;63.00
11387;DHT22;5748;53.102;8.456;2023-02-16T13:16:21;13.40;63.10
11387;DHT22;5748;53.102;8.456;2023-02-16T13:18:52;13.40;63.10
11387;DHT22;5748;53.102;8.456;2023-02-16T13:24:57;13.30;62.70
11387;DHT22;5748;53.102;8.456;2023-02-16T13:27:36;13.30;62.50
11387;DHT22;5748;53.102;8.456;2023-02-16T13:30:48;13.40;62.70
11387;DHT22;5748;53.102;8.456;2023-02-16T13:33:49;13.30;63.00
11387;DHT22;5748;53.102;8.456;2023-02-16T13:36:32;13.30;62.60
11387;DHT22;5748;53.102;8.456;2023-02-16T13:42:31;13.10;63.00
11387;DHT22;5748;53.102;8.456;2023-02-16T13:45:14;13.00;62.40
11387;DHT22;5748;53.102;8.456;2023-02-16T13:47:41;12.90;62.30
11387;DHT22;5748;53.102;8.456;2023-02-16T13:50:24;12.90;62.20
11387;DHT22;5748;53.102;8.456;2023-02-16T13:52:57;12.80;62.60
11387;DHT22;5748;53.102;8.456;2023-02-16T13:55:36;12.80;62.50
11387;DHT22;5748;53.102;8.456;2023-02-16T13:58:10;12.70;63.00
11387;DHT22;5748;53.102;8.456;2023-02-16T14:00:52;12.70;63.20
11387;DHT22;5748;53.102;8.456;2023-02-16T14:03:37;12.60;62.80
11387;DHT22;5748;53.102;8.456;2023-02-16T14:06:28;12.50;63.30
11387;DHT22;5748;53.102;8.456;2023-02-16T14:09:32;12.50;63.50
11387;DHT22;5748;53.102;8.456;2023-02-16T14:12:23;12.50;63.90
11387;DHT22;5748;53.102;8.456;2023-02-16T14:14:58;12.50;64.10
11387;DHT22;5748;53.102;8.456;2023-02-16T14:17:33;12.50;63.70
11387;DHT22;5748;53.102;8.456;2023-02-16T14:20:03;12.40;63.70
11387;DHT22;5748;53.102;8.456;2023-02-16T14:22:36;12.40;63.70
11387;DHT22;5748;53.102;8.456;2023-02-16T14:25:32;12.40;63.90
11387;DHT22;5748;53.102;8.456;2023-02-16T14:28:02;12.40;64.60
11387;DHT22;5748;53.102;8.456;2023-02-16T14:30:35;12.90;64.40
11387;DHT22;5748;53.102;8.456;2023-02-16T14:33:16;12.50;64.50
11387;DHT22;5748;53.102;8.456;2023-02-16T14:36:04;12.50;64.70
11387;DHT22;5748;53.102;8.456;2023-02-16T14:38:34;12.50;64.60
11387;DHT22;5748;53.102;8.456;2023-02-16T14:41:04;12.50;64.30
11387;DHT22;5748;53.102;8.456;2023-02-16T14:43:38;12.50;64.40
11387;DHT22;5748;53.102;8.456;2023-02-16T14:46:21;12.60;64.30
11387;DHT22;5748;53.102;8.456;2023-02-16T14:56:08;12.70;65.10
11387;DHT22;5748;53.102;8.456;2023-02-16T14:58:49;12.70;64.70
11387;DHT22;5748;53.102;8.456;2023-02-16T15:01:20;12.80;64.50
11387;DHT22;5748;53.102;8.456;2023-02-16T15:03:49;12.70;64.30
11387;DHT22;5748;53.102;8.456;2023-02-16T15:06:22;12.70;65.10
11387;DHT22;5748;53.102;8.456;2023-02-16T15:08:56;12.80;64.50
11387;DHT22;5748;53.102;8.456;2023-02-16T15:11:30;12.70;64.60
11387;DHT22;5748;53.102;8.456;2023-02-16T15:14:06;12.80;64.50
11387;DHT22;5748;53.102;8.456;2023-02-16T15:16:39;12.80;64.40
11387;DHT22;5748;53.102;8.456;2023-02-16T15:19:13;12.80;64.60
11387;DHT22;5748;53.102;8.456;2023-02-16T15:21:42;12.80;64.40
11387;DHT22;5748;53.102;8.456;2023-02-16T15:24:20;12.80;64.90
11387;DHT22;5748;53.102;8.456;2023-02-16T15:26:53;12.80;64.40
11387;DHT22;5748;53.102;8.456;2023-02-16T15:29:23;12.80;64.20
11387;DHT22;5748;53.102;8.456;2023-02-16T15:31:53;12.80;64.10
11387;DHT22;5748;53.102;8.456;2023-02-16T15:34:29;12.80;64.00
11387;DHT22;5748;53.102;8.456;2023-02-16T15:36:59;12.80;64.20
11387;DHT22;5748;53.102;8.456;2023-02-16T15:39:30;12.90;64.10
11387;DHT22;5748;53.102;8.456;2023-02-16T15:42:14;12.90;63.90
11387;DHT22;5748;53.102;8.456;2023-02-16T15:44:45;12.80;64.00
11387;DHT22;5748;53.102;8.456;2023-02-16T15:47:19;12.80;63.80
11387;DHT22;5748;53.102;8.456;2023-02-16T15:49:47;12.80;63.80
11387;DHT22;5748;53.102;8.456;2023-02-16T15:52:16;12.80;63.60
11387;DHT22;5748;53.102;8.456;2023-02-16T15:54:48;12.80;63.80
11387;DHT22;5748;53.102;8.456;2023-02-16T15:57:19;12.80;63.70
11387;DHT22;5748;53.102;8.456;2023-02-16T15:59:49;12.80;63.90
11387;DHT22;5748;53.102;8.456;2023-02-16T16:02:20;12.80;63.80
11387;DHT22;5748;53.102;8.456;2023-02-16T16:04:51;12.80;64.00
11387;DHT22;5748;53.102;8.456;2023-02-16T16:07:25;12.70;63.80
11387;DHT22;5748;53.102;8.456;2023-02-16T16:09:55;12.80;64.10
11387;DHT22;5748;53.102;8.456;2023-02-16T16:12:23;12.60;64.10
11387;DHT22;5748;53.102;8.456;2023-02-16T16:14:53;12.60;64.10
11387;DHT22;5748;53.102;8.456;2023-02-16T16:17:24;12.60;64.00
11387;DHT22;5748;53.102;8.456;2023-02-16T16:19:54;12.60;64.30
11387;DHT22;5748;53.102;8.456;2023-02-16T16:22:34;12.50;64.00
11387;DHT22;5748;53.102;8.456;2023-02-16T16:25:35;12.50;64.40
11387;DHT22;5748;53.102;8.456;2023-02-16T16:28:05;12.50;64.80
11387;DHT22;5748;53.102;8.456;2023-02-16T16:30:34;12.50;64.00
11387;DHT22;5748;53.102;8.456;2023-02-16T16:33:11;12.50;64.20
11387;DHT22;5748;53.102;8.456;2023-02-16T16:35:40;12.40;64.20
11387;DHT22;5748;53.102;8.456;2023-02-16T16:38:21;12.40;64.10
11387;DHT22;5748;53.102;8.456;2023-02-16T16:40:51;12.40;64.30
11387;DHT22;5748;53.102;8.456;2023-02-16T16:43:19;12.40;64.20
11387;DHT22;5748;53.102;8.456;2023-02-16T16:45:54;12.40;64.10
11387;DHT22;5748;53.102;8.456;2023-02-16T16:48:27;12.30;64.20
11387;DHT22;5748;53.102;8.456;2023-02-16T16:51:08;12.40;64.30
11387;DHT22;5748;53.102;8.456;2023-02-16T16:53:40;12.40;64.60
11387;DHT22;5748;53.102;8.456;2023-02-16T16:56:11;12.30;64.20